sensor_id;sensor_type;location;lat;lon;timestamp;pressure;altitude;pressure_sealevel;temperature;humidity
21102;BME280;10709;49.006;12.100;2023-08-24T00:01:35;48761.72;;;-146.00;60.23
21102;BME280;10709;49.006;12.100;2023-08-24T00:04:02;48761.72;;;-146.00;60.02
21102;BME280;10709;49.006;12.100;2023-08-24T00:06:28;48781.31;;;-146.00;60.56
21102;BME280;10709;49.006;12.100;2023-08-24T00:08:55;48773.47;;;-146.00;60.43
21102;BME280;10709;49.006;12.100;2023-08-24T00:11:22;48795.00;;;-146.00;60.56
21102;BME280;10709;49.006;12.100;2023-08-24T00:13:48;48781.31;;;-146.00;60.64
21102;BME280;10709;49.006;12.100;2023-08-24T00:16:18;48804.81;;;-146.00;60.79
21102;BME280;10709;49.006;12.100;2023-08-24T00:18:46;48793.06;;;-146.00;61.28
21102;BME280;10709;49.006;12.100;2023-08-24T00:21:14;48773.47;;;-146.00;61.19
21102;BME280;10709;49.006;12.100;2023-08-24T00:23:43;48800.88;;;-146.00;61.28
21102;BME280;10709;49.006;12.100;2023-08-24T00:26:10;48757.78;;;-146.00;61.52
21102;BME280;10709;49.006;12.100;2023-08-24T00:28:37;48765.63;;;-146.00;61.50
21102;BME280;10709;49.006;12.100;2023-08-24T00:31:03;48773.47;;;-146.00;61.50
21102;BME280;10709;49.006;12.100;2023-08-24T00:33:30;48769.53;;;-146.00;61.52
21102;BME280;10709;49.006;12.100;2023-08-24T00:36:04;48773.47;;;-146.00;61.63
21102;BME280;10709;49.006;12.100;2023-08-24T00:38:31;48753.88;;;-146.00;61.38
21102;BME280;10709;49.006;12.100;2023-08-24T00:40:58;48738.19;;;-146.00;61.92
21102;BME280;10709;49.006;12.100;2023-08-24T00:43:26;48730.38;;;-146.00;62.35
21102;BME280;10709;49.006;12.100;2023-08-24T00:45:55;48769.53;;;-146.00;62.26
21102;BME280;10709;49.006;12.100;2023-08-24T00:48:23;48753.88;;;-146.00;62.08
21102;BME280;10709;49.006;12.100;2023-08-24T00:50:52;48753.88;;;-146.00;62.05
21102;BME280;10709;49.006;12.100;2023-08-24T00:53:20;48785.22;;;-146.00;62.15
21102;BME280;10709;49.006;12.100;2023-08-24T00:55:47;48753.88;;;-146.00;61.98
21102;BME280;10709;49.006;12.100;2023-08-24T00:58:14;48791.09;;;-146.00;62.12
21102;BME280;10709;49.006;12.100;2023-08-24T01:00:41;48753.88;;;-146.00;61.83
21102;BME280;10709;49.006;12.100;2023-08-24T01:03:07;48746.03;;;-146.00;62.14
21102;BME280;10709;49.006;12.100;2023-08-24T01:05:35;48753.88;;;-146.00;62.37
21102;BME280;10709;49.006;12.100;2023-08-24T01:08:02;48773.47;;;-146.00;62.14
21102;BME280;10709;49.006;12.100;2023-08-24T01:10:38;48757.78;;;-146.00;62.23
21102;BME280;10709;49.006;12.100;2023-08-24T01:13:09;48777.38;;;-146.00;62.51
21102;BME280;10709;49.006;12.100;2023-08-24T01:15:40;48734.28;;;-146.00;62.26
21102;BME280;10709;49.006;12.100;2023-08-24T01:18:12;48787.19;;;-146.00;62.17
21102;BME280;10709;49.006;12.100;2023-08-24T01:20:42;48746.03;;;-146.00;62.12
21102;BME280;10709;49.006;12.100;2023-08-24T01:25:53;48773.47;;;-146.00;62.57
21102;BME280;10709;49.006;12.100;2023-08-24T01:28:20;48757.78;;;-146.00;62.86
21102;BME280;10709;49.006;12.100;2023-08-24T01:30:48;48781.31;;;-146.00;62.98
21102;BME280;10709;49.006;12.100;2023-08-24T01:33:15;48781.31;;;-146.00;62.63
21102;BME280;10709;49.006;12.100;2023-08-24T01:35:41;48714.69;;;-146.00;62.85
21102;BME280;10709;49.006;12.100;2023-08-24T01:38:08;48763.66;;;-146.00;62.76
21102;BME280;10709;49.006;12.100;2023-08-24T01:40:52;48738.19;;;-146.00;62.75
21102;BME280;10709;49.006;12.100;2023-08-24T01:43:21;48738.19;;;-146.00;62.56
21102;BME280;10709;49.006;12.100;2023-08-24T01:46:09;48795.00;;;-146.00;62.75
21102;BME280;10709;49.006;12.100;2023-08-24T01:48:38;48761.72;;;-146.00;63.09
21102;BME280;10709;49.006;12.100;2023-08-24T01:51:06;48781.31;;;-146.00;63.27
21102;BME280;10709;49.006;12.100;2023-08-24T01:53:33;48757.78;;;-146.00;63.00
21102;BME280;10709;49.006;12.100;2023-08-24T01:55:59;48763.66;;;-146.00;63.22
21102;BME280;10709;49.006;12.100;2023-08-24T01:58:26;48746.03;;;-146.00;63.65
21102;BME280;10709;49.006;12.100;2023-08-24T02:00:53;48753.88;;;-146.00;63.66
21102;BME280;10709;49.006;12.100;2023-08-24T02:03:20;48765.63;;;-146.00;64.31
21102;BME280;10709;49.006;12.100;2023-08-24T02:05:46;48744.06;;;-146.00;64.13
21102;BME280;10709;49.006;12.100;2023-08-24T02:08:13;48746.03;;;-146.00;64.17
21102;BME280;10709;49.006;12.100;2023-08-24T02:10:40;48793.06;;;-146.00;64.08
21102;BME280;10709;49.006;12.100;2023-08-24T02:13:06;48753.88;;;-146.00;63.91
21102;BME280;10709;49.006;12.100;2023-08-24T02:15:33;48793.06;;;-146.00;63.87
21102;BME280;10709;49.006;12.100;2023-08-24T02:18:00;48761.72;;;-146.00;63.91
21102;BME280;10709;49.006;12.100;2023-08-24T02:20:26;48734.28;;;-146.00;64.18
21102;BME280;10709;49.006;12.100;2023-08-24T02:22:53;48755.84;;;-146.00;64.07
21102;BME280;10709;49.006;12.100;2023-08-24T02:25:20;48761.72;;;-146.00;64.03
21102;BME280;10709;49.006;12.100;2023-08-24T02:27:48;48746.03;;;-146.00;64.22
21102;BME280;10709;49.006;12.100;2023-08-24T02:30:15;48759.75;;;-146.00;64.16
21102;BME280;10709;49.006;12.100;2023-08-24T02:32:42;48742.13;;;-146.00;64.07
21102;BME280;10709;49.006;12.100;2023-08-24T02:35:09;48761.72;;;-146.00;64.24
21102;BME280;10709;49.006;12.100;2023-08-24T02:37:35;48746.03;;;-146.00;64.53
21102;BME280;10709;49.006;12.100;2023-08-24T02:40:02;48746.03;;;-146.00;64.57
21102;BME280;10709;49.006;12.100;2023-08-24T02:42:33;48765.63;;;-146.00;64.78
21102;BME280;10709;49.006;12.100;2023-08-24T02:44:59;48765.63;;;-146.00;64.86
21102;BME280;10709;49.006;12.100;2023-08-24T02:47:26;48738.19;;;-146.00;65.19
21102;BME280;10709;49.006;12.100;2023-08-24T02:49:52;48740.16;;;-146.00;65.20
21102;BME280;10709;49.006;12.100;2023-08-24T02:52:19;48761.72;;;-146.00;65.26
21102;BME280;10709;49.006;12.100;2023-08-24T02:54:45;48730.38;;;-146.00;65.32
21102;BME280;10709;49.006;12.100;2023-08-24T02:57:13;48753.88;;;-146.00;65.46
21102;BME280;10709;49.006;12.100;2023-08-24T02:59:40;48761.72;;;-146.00;65.58
21102;BME280;10709;49.006;12.100;2023-08-24T03:02:10;48744.06;;;-146.00;65.30
21102;BME280;10709;49.006;12.100;2023-08-24T03:04:36;48781.31;;;-146.00;65.68
21102;BME280;10709;49.006;12.100;2023-08-24T03:07:02;48714.69;;;-146.00;65.66
21102;BME280;10709;49.006;12.100;2023-08-24T03:09:29;48753.88;;;-146.00;65.62
21102;BME280;10709;49.006;12.100;2023-08-24T03:11:55;48761.72;;;-146.00;65.89
21102;BME280;10709;49.006;12.100;2023-08-24T03:14:22;48738.19;;;-146.00;65.92
21102;BME280;10709;49.006;12.100;2023-08-24T03:16:49;48742.13;;;-146.00;66.21
21102;BME280;10709;49.006;12.100;2023-08-24T03:19:16;48720.56;;;-146.00;66.45
21102;BME280;10709;49.006;12.100;2023-08-24T03:21:44;48767.59;;;-146.00;66.23
21102;BME280;10709;49.006;12.100;2023-08-24T03:24:11;48746.03;;;-146.00;65.96
21102;BME280;10709;49.006;12.100;2023-08-24T03:26:37;48742.13;;;-146.00;65.83
21102;BME280;10709;49.006;12.100;2023-08-24T03:29:04;48757.78;;;-146.00;65.83
21102;BME280;10709;49.006;12.100;2023-08-24T03:31:30;48753.88;;;-146.00;65.62
21102;BME280;10709;49.006;12.100;2023-08-24T03:33:57;48740.16;;;-146.00;65.86
21102;BME280;10709;49.006;12.100;2023-08-24T03:36:23;48714.69;;;-146.00;65.81
21102;BME280;10709;49.006;12.100;2023-08-24T03:38:50;48734.28;;;-146.00;65.72
21102;BME280;10709;49.006;12.100;2023-08-24T03:41:16;48765.63;;;-146.00;65.70
21102;BME280;10709;49.006;12.100;2023-08-24T03:43:43;48761.72;;;-146.00;65.68
21102;BME280;10709;49.006;12.100;2023-08-24T03:46:10;48746.03;;;-146.00;65.92
21102;BME280;10709;49.006;12.100;2023-08-24T03:48:37;48738.19;;;-146.00;65.95
21102;BME280;10709;49.006;12.100;2023-08-24T03:51:04;48744.06;;;-146.00;65.95
21102;BME280;10709;49.006;12.100;2023-08-24T03:53:30;48742.13;;;-146.00;66.13
21102;BME280;10709;49.006;12.100;2023-08-24T03:55:57;48742.13;;;-146.00;66.02
21102;BME280;10709;49.006;12.100;2023-08-24T03:58:23;48738.19;;;-146.00;66.43
21102;BME280;10709;49.006;12.100;2023-08-24T04:00:50;48751.91;;;-146.00;66.29
21102;BME280;10709;49.006;12.100;2023-08-24T04:03:16;48742.13;;;-146.00;66.31
21102;BME280;10709;49.006;12.100;2023-08-24T04:05:43;48726.44;;;-146.00;66.39
21102;BME280;10709;49.006;12.100;2023-08-24T04:08:10;48755.84;;;-146.00;66.46
21102;BME280;10709;49.006;12.100;2023-08-24T04:10:37;48742.13;;;-146.00;66.37
21102;BME280;10709;49.006;12.100;2023-08-24T04:13:03;48769.53;;;-146.00;66.25
21102;BME280;10709;49.006;12.100;2023-08-24T04:15:30;48761.72;;;-146.00;66.43
21102;BME280;10709;49.006;12.100;2023-08-24T04:17:56;48746.03;;;-146.00;66.38
21102;BME280;10709;49.006;12.100;2023-08-24T04:20:23;48793.06;;;-146.00;66.43
21102;BME280;10709;49.006;12.100;2023-08-24T04:22:50;48726.44;;;-146.00;66.38
21102;BME280;10709;49.006;12.100;2023-08-24T04:25:17;48753.88;;;-146.00;67.09
21102;BME280;10709;49.006;12.100;2023-08-24T04:27:43;48738.19;;;-146.00;67.95
21102;BME280;10709;49.006;12.100;2023-08-24T04:30:10;48746.03;;;-146.00;67.70
21102;BME280;10709;49.006;12.100;2023-08-24T04:32:38;48732.31;;;-146.00;67.78
21102;BME280;10709;49.006;12.100;2023-08-24T04:35:05;48742.13;;;-146.00;67.78
21102;BME280;10709;49.006;12.100;2023-08-24T04:37:32;48734.28;;;-146.00;68.17
21102;BME280;10709;49.006;12.100;2023-08-24T04:40:00;48742.13;;;-146.00;67.87
21102;BME280;10709;49.006;12.100;2023-08-24T04:42:27;48724.50;;;-146.00;67.64
21102;BME280;10709;49.006;12.100;2023-08-24T04:44:53;48732.31;;;-146.00;68.17
21102;BME280;10709;49.006;12.100;2023-08-24T04:47:20;48769.53;;;-146.00;67.51
21102;BME280;10709;49.006;12.100;2023-08-24T04:49:46;48726.44;;;-146.00;67.49
21102;BME280;10709;49.006;12.100;2023-08-24T04:52:13;48702.94;;;-146.00;67.77
21102;BME280;10709;49.006;12.100;2023-08-24T04:54:40;48746.03;;;-146.00;68.13
21102;BME280;10709;49.006;12.100;2023-08-24T04:57:07;48753.88;;;-146.00;68.40
21102;BME280;10709;49.006;12.100;2023-08-24T04:59:33;48722.53;;;-146.00;68.54
21102;BME280;10709;49.006;12.100;2023-08-24T05:02:00;48753.88;;;-146.00;68.63
21102;BME280;10709;49.006;12.100;2023-08-24T05:04:27;48738.19;;;-146.00;68.50
21102;BME280;10709;49.006;12.100;2023-08-24T05:06:53;48734.28;;;-146.00;68.46
21102;BME280;10709;49.006;12.100;2023-08-24T05:09:20;48706.84;;;-146.00;69.01
21102;BME280;10709;49.006;12.100;2023-08-24T05:11:46;48742.13;;;-146.00;69.42
21102;BME280;10709;49.006;12.100;2023-08-24T05:14:13;48712.72;;;-146.00;69.10
21102;BME280;10709;49.006;12.100;2023-08-24T05:16:40;48746.03;;;-146.00;68.57
21102;BME280;10709;49.006;12.100;2023-08-24T05:19:07;48718.59;;;-146.00;70.08
21102;BME280;10709;49.006;12.100;2023-08-24T05:21:33;48726.44;;;-146.00;70.18
21102;BME280;10709;49.006;12.100;2023-08-24T05:24:00;48726.44;;;-146.00;70.53
21102;BME280;10709;49.006;12.100;2023-08-24T05:26:27;48726.44;;;-146.00;70.54
21102;BME280;10709;49.006;12.100;2023-08-24T05:28:53;48722.53;;;-146.00;70.80
21102;BME280;10709;49.006;12.100;2023-08-24T05:31:20;48720.56;;;-146.00;70.19
21102;BME280;10709;49.006;12.100;2023-08-24T05:33:47;48722.53;;;-146.00;71.35
21102;BME280;10709;49.006;12.100;2023-08-24T05:36:14;48753.88;;;-146.00;72.74
21102;BME280;10709;49.006;12.100;2023-08-24T05:38:41;48722.53;;;-146.00;74.69
21102;BME280;10709;49.006;12.100;2023-08-24T05:41:29;48693.16;;;-146.00;74.27
21102;BME280;10709;49.006;12.100;2023-08-24T05:43:55;48722.53;;;-146.00;74.38
21102;BME280;10709;49.006;12.100;2023-08-24T05:46:23;48732.31;;;-146.00;73.16
21102;BME280;10709;49.006;12.100;2023-08-24T05:48:50;48734.28;;;-146.00;72.09
21102;BME280;10709;49.006;12.100;2023-08-24T05:51:16;48699.03;;;-146.00;73.27
21102;BME280;10709;49.006;12.100;2023-08-24T05:53:43;48710.78;;;-146.00;73.10
21102;BME280;10709;49.006;12.100;2023-08-24T05:56:10;48746.03;;;-146.00;72.46
21102;BME280;10709;49.006;12.100;2023-08-24T05:58:37;48746.03;;;-146.00;72.21
21102;BME280;10709;49.006;12.100;2023-08-24T06:01:03;48718.59;;;-146.00;71.80
21102;BME280;10709;49.006;12.100;2023-08-24T06:03:29;48730.38;;;-146.00;71.56
21102;BME280;10709;49.006;12.100;2023-08-24T06:06:03;48736.25;;;-146.00;72.04
21102;BME280;10709;49.006;12.100;2023-08-24T06:08:30;48738.19;;;-146.00;71.83
21102;BME280;10709;49.006;12.100;2023-08-24T06:10:58;48724.50;;;-146.00;71.06
21102;BME280;10709;49.006;12.100;2023-08-24T06:13:24;48726.44;;;-146.00;70.99
21102;BME280;10709;49.006;12.100;2023-08-24T06:15:51;48730.38;;;-146.00;70.00
21102;BME280;10709;49.006;12.100;2023-08-24T06:18:17;48732.31;;;-146.00;69.87
21102;BME280;10709;49.006;12.100;2023-08-24T06:20:44;48746.03;;;-146.00;69.33
21102;BME280;10709;49.006;12.100;2023-08-24T06:23:12;48761.72;;;-146.00;69.11
21102;BME280;10709;49.006;12.100;2023-08-24T06:25:41;48755.84;;;-146.00;67.60
21102;BME280;10709;49.006;12.100;2023-08-24T06:28:08;48742.13;;;-146.00;68.29
21102;BME280;10709;49.006;12.100;2023-08-24T06:30:40;48738.19;;;-146.00;69.21
21102;BME280;10709;49.006;12.100;2023-08-24T06:33:07;48746.03;;;-146.00;69.73
21102;BME280;10709;49.006;12.100;2023-08-24T06:35:34;48738.19;;;-146.00;69.31
21102;BME280;10709;49.006;12.100;2023-08-24T06:38:02;48730.38;;;-146.00;69.14
21102;BME280;10709;49.006;12.100;2023-08-24T06:40:29;48753.88;;;-146.00;68.01
21102;BME280;10709;49.006;12.100;2023-08-24T06:42:56;48702.94;;;-146.00;68.30
21102;BME280;10709;49.006;12.100;2023-08-24T06:45:23;48767.59;;;-146.00;67.99
21102;BME280;10709;49.006;12.100;2023-08-24T06:47:50;48740.16;;;-146.00;68.39
21102;BME280;10709;49.006;12.100;2023-08-24T06:50:18;48769.53;;;-146.00;68.36
21102;BME280;10709;49.006;12.100;2023-08-24T06:52:45;48718.59;;;-146.00;68.63
21102;BME280;10709;49.006;12.100;2023-08-24T06:55:12;48765.63;;;-146.00;68.38
21102;BME280;10709;49.006;12.100;2023-08-24T06:57:42;48738.19;;;-146.00;68.61
21102;BME280;10709;49.006;12.100;2023-08-24T07:00:09;48734.28;;;-146.00;68.57
21102;BME280;10709;49.006;12.100;2023-08-24T07:02:36;48736.25;;;-146.00;68.39
21102;BME280;10709;49.006;12.100;2023-08-24T07:05:03;48732.31;;;-146.00;68.17
21102;BME280;10709;49.006;12.100;2023-08-24T07:07:35;48744.06;;;-146.00;68.22
21102;BME280;10709;49.006;12.100;2023-08-24T07:10:02;48714.69;;;-146.00;67.75
21102;BME280;10709;49.006;12.100;2023-08-24T07:12:30;48734.28;;;-146.00;66.76
21102;BME280;10709;49.006;12.100;2023-08-24T07:14:56;48702.94;;;-146.00;66.28
21102;BME280;10709;49.006;12.100;2023-08-24T07:17:23;48734.28;;;-146.00;66.03
21102;BME280;10709;49.006;12.100;2023-08-24T07:19:49;48736.25;;;-146.00;66.17
21102;BME280;10709;49.006;12.100;2023-08-24T07:22:16;48746.03;;;-146.00;66.52
21102;BME280;10709;49.006;12.100;2023-08-24T07:24:42;48769.53;;;-146.00;66.42
21102;BME280;10709;49.006;12.100;2023-08-24T07:27:12;48757.78;;;-146.00;66.36
21102;BME280;10709;49.006;12.100;2023-08-24T07:29:38;48726.44;;;-146.00;65.90
21102;BME280;10709;49.006;12.100;2023-08-24T07:32:05;48769.53;;;-146.00;65.66
21102;BME280;10709;49.006;12.100;2023-08-24T07:34:32;48761.72;;;-146.00;65.01
21102;BME280;10709;49.006;12.100;2023-08-24T07:36:59;48746.03;;;-146.00;64.09
21102;BME280;10709;49.006;12.100;2023-08-24T07:39:27;48781.31;;;-146.00;63.36
21102;BME280;10709;49.006;12.100;2023-08-24T07:41:53;48773.47;;;-146.00;62.62
21102;BME280;10709;49.006;12.100;2023-08-24T07:44:20;48781.31;;;-146.00;63.23
21102;BME280;10709;49.006;12.100;2023-08-24T07:46:47;48804.81;;;-146.00;61.83
21102;BME280;10709;49.006;12.100;2023-08-24T07:49:14;48793.06;;;-146.00;62.07
21102;BME280;10709;49.006;12.100;2023-08-24T07:51:40;48781.31;;;-146.00;62.19
21102;BME280;10709;49.006;12.100;2023-08-24T07:54:09;48785.22;;;-146.00;62.67
21102;BME280;10709;49.006;12.100;2023-08-24T07:56:36;48796.97;;;-146.00;63.82
21102;BME280;10709;49.006;12.100;2023-08-24T07:59:03;48771.50;;;-146.00;63.73
21102;BME280;10709;49.006;12.100;2023-08-24T08:01:29;48781.31;;;-146.00;63.81
21102;BME280;10709;49.006;12.100;2023-08-24T08:03:57;48785.22;;;-146.00;63.85
21102;BME280;10709;49.006;12.100;2023-08-24T08:06:23;48765.63;;;-146.00;63.48
21102;BME280;10709;49.006;12.100;2023-08-24T08:08:51;48789.13;;;-146.00;63.67
21102;BME280;10709;49.006;12.100;2023-08-24T08:11:18;48793.06;;;-146.00;64.07
21102;BME280;10709;49.006;12.100;2023-08-24T08:13:45;48769.53;;;-146.00;64.40
21102;BME280;10709;49.006;12.100;2023-08-24T08:16:11;48804.81;;;-146.00;64.42
21102;BME280;10709;49.006;12.100;2023-08-24T08:18:38;48793.06;;;-146.00;63.98
21102;BME280;10709;49.006;12.100;2023-08-24T08:21:09;48775.41;;;-146.00;64.40
21102;BME280;10709;49.006;12.100;2023-08-24T08:23:37;48785.22;;;-146.00;64.30
21102;BME280;10709;49.006;12.100;2023-08-24T08:26:04;48777.38;;;-146.00;63.96
21102;BME280;10709;49.006;12.100;2023-08-24T08:28:31;48812.63;;;-146.00;64.42
21102;BME280;10709;49.006;12.100;2023-08-24T08:31:00;48773.47;;;-146.00;63.92
21102;BME280;10709;49.006;12.100;2023-08-24T08:33:27;48779.34;;;-146.00;63.34
21102;BME280;10709;49.006;12.100;2023-08-24T08:35:54;48789.13;;;-146.00;61.98
21102;BME280;10709;49.006;12.100;2023-08-24T08:38:20;48793.06;;;-146.00;63.29
21102;BME280;10709;49.006;12.100;2023-08-24T08:41:03;48765.63;;;-146.00;61.01
21102;BME280;10709;49.006;12.100;2023-08-24T08:43:30;48763.66;;;-146.00;62.17
21102;BME280;10709;49.006;12.100;2023-08-24T08:45:58;48773.47;;;-146.00;61.50
21102;BME280;10709;49.006;12.100;2023-08-24T08:48:25;48759.75;;;-146.00;61.78
21102;BME280;10709;49.006;12.100;2023-08-24T08:50:54;48761.72;;;-146.00;62.38
21102;BME280;10709;49.006;12.100;2023-08-24T08:53:23;48785.22;;;-146.00;62.40
21102;BME280;10709;49.006;12.100;2023-08-24T08:55:54;48771.50;;;-146.00;62.50
21102;BME280;10709;49.006;12.100;2023-08-24T08:58:21;48777.38;;;-146.00;62.43
21102;BME280;10709;49.006;12.100;2023-08-24T09:00:49;48802.84;;;-146.00;62.90
21102;BME280;10709;49.006;12.100;2023-08-24T09:03:17;48810.69;;;-146.00;61.32
21102;BME280;10709;49.006;12.100;2023-08-24T09:05:45;48804.81;;;-146.00;62.52
21102;BME280;10709;49.006;12.100;2023-08-24T09:08:18;48802.84;;;-146.00;62.74
21102;BME280;10709;49.006;12.100;2023-08-24T09:10:45;48761.72;;;-146.00;61.83
21102;BME280;10709;49.006;12.100;2023-08-24T09:13:12;48816.56;;;-146.00;61.85
21102;BME280;10709;49.006;12.100;2023-08-24T09:15:38;48808.72;;;-146.00;61.66
21102;BME280;10709;49.006;12.100;2023-08-24T09:18:05;48808.72;;;-146.00;61.54
21102;BME280;10709;49.006;12.100;2023-08-24T09:20:33;48828.31;;;-146.00;61.19
21102;BME280;10709;49.006;12.100;2023-08-24T09:23:00;48769.53;;;-146.00;60.33
21102;BME280;10709;49.006;12.100;2023-08-24T09:25:27;48816.56;;;-146.00;60.17
21102;BME280;10709;49.006;12.100;2023-08-24T09:30:53;48812.63;;;-146.00;61.24
21102;BME280;10709;49.006;12.100;2023-08-24T09:33:23;48793.06;;;-146.00;59.54
21102;BME280;10709;49.006;12.100;2023-08-24T09:35:53;48777.38;;;-146.00;59.33
21102;BME280;10709;49.006;12.100;2023-08-24T09:38:22;48808.72;;;-146.00;60.86
21102;BME280;10709;49.006;12.100;2023-08-24T09:40:54;48836.16;;;-146.00;57.28
21102;BME280;10709;49.006;12.100;2023-08-24T09:43:22;48796.97;;;-146.00;58.51
21102;BME280;10709;49.006;12.100;2023-08-24T09:45:50;48804.81;;;-146.00;57.73
21102;BME280;10709;49.006;12.100;2023-08-24T09:48:18;48793.06;;;-146.00;56.70
21102;BME280;10709;49.006;12.100;2023-08-24T09:50:46;48800.88;;;-146.00;55.71
21102;BME280;10709;49.006;12.100;2023-08-24T09:53:17;48816.56;;;-146.00;55.36
21102;BME280;10709;49.006;12.100;2023-08-24T09:58:18;48824.41;;;-146.00;56.94
21102;BME280;10709;49.006;12.100;2023-08-24T10:00:46;48818.53;;;-146.00;57.71
21102;BME280;10709;49.006;12.100;2023-08-24T10:03:16;48798.94;;;-146.00;57.21
21102;BME280;10709;49.006;12.100;2023-08-24T10:05:50;48814.59;;;-146.00;55.71
21102;BME280;10709;49.006;12.100;2023-08-24T10:08:27;48781.31;;;-146.00;55.06
21102;BME280;10709;49.006;12.100;2023-08-24T10:10:55;48816.56;;;-146.00;55.65
21102;BME280;10709;49.006;12.100;2023-08-24T10:13:44;48812.63;;;-146.00;55.83
21102;BME280;10709;49.006;12.100;2023-08-24T10:16:13;48793.06;;;-146.00;53.92
21102;BME280;10709;49.006;12.100;2023-08-24T10:18:40;48832.22;;;-146.00;55.41
21102;BME280;10709;49.006;12.100;2023-08-24T10:21:09;48832.22;;;-146.00;55.59
21102;BME280;10709;49.006;12.100;2023-08-24T10:23:37;48806.75;;;-146.00;54.38
21102;BME280;10709;49.006;12.100;2023-08-24T10:26:06;48834.19;;;-146.00;56.19
21102;BME280;10709;49.006;12.100;2023-08-24T10:28:34;48859.66;;;-146.00;53.65
21102;BME280;10709;49.006;12.100;2023-08-24T10:31:02;48855.75;;;-146.00;53.28
21102;BME280;10709;49.006;12.100;2023-08-24T10:33:30;48828.31;;;-146.00;52.74
21102;BME280;10709;49.006;12.100;2023-08-24T10:35:58;48814.59;;;-146.00;53.12
21102;BME280;10709;49.006;12.100;2023-08-24T10:38:26;48828.31;;;-146.00;53.04
21102;BME280;10709;49.006;12.100;2023-08-24T10:40:54;48808.72;;;-146.00;53.36
21102;BME280;10709;49.006;12.100;2023-08-24T10:43:22;48820.47;;;-146.00;54.51
21102;BME280;10709;49.006;12.100;2023-08-24T10:46:01;48802.84;;;-146.00;53.64
21102;BME280;10709;49.006;12.100;2023-08-24T10:51:24;48816.56;;;-146.00;54.76
21102;BME280;10709;49.006;12.100;2023-08-24T10:56:30;48883.16;;;-146.00;51.71
21102;BME280;10709;49.006;12.100;2023-08-24T10:59:13;48824.41;;;-146.00;53.14
21102;BME280;10709;49.006;12.100;2023-08-24T11:01:54;48851.81;;;-146.00;53.09
21102;BME280;10709;49.006;12.100;2023-08-24T11:04:22;48845.94;;;-146.00;52.75
21102;BME280;10709;49.006;12.100;2023-08-24T11:06:52;48824.41;;;-146.00;54.25
21102;BME280;10709;49.006;12.100;2023-08-24T11:09:19;48820.47;;;-146.00;52.50
21102;BME280;10709;49.006;12.100;2023-08-24T11:11:59;48844.00;;;-146.00;51.30
21102;BME280;10709;49.006;12.100;2023-08-24T11:14:27;48812.63;;;-146.00;52.98
21102;BME280;10709;49.006;12.100;2023-08-24T11:17:01;48828.31;;;-146.00;51.54
21102;BME280;10709;49.006;12.100;2023-08-24T11:19:51;48836.16;;;-146.00;51.80
21102;BME280;10709;49.006;12.100;2023-08-24T11:22:18;48845.94;;;-146.00;52.44
21102;BME280;10709;49.006;12.100;2023-08-24T11:24:45;48867.50;;;-146.00;51.92
21102;BME280;10709;49.006;12.100;2023-08-24T11:27:11;48865.53;;;-146.00;50.90
21102;BME280;10709;49.006;12.100;2023-08-24T11:29:38;48853.78;;;-146.00;50.56
21102;BME280;10709;49.006;12.100;2023-08-24T11:32:05;48836.16;;;-146.00;51.39
21102;BME280;10709;49.006;12.100;2023-08-24T11:34:33;48871.41;;;-146.00;51.13
21102;BME280;10709;49.006;12.100;2023-08-24T11:37:00;48844.00;;;-146.00;50.27
21102;BME280;10709;49.006;12.100;2023-08-24T11:39:27;48859.66;;;-146.00;50.19
21102;BME280;10709;49.006;12.100;2023-08-24T11:42:05;48847.91;;;-146.00;52.51
21102;BME280;10709;49.006;12.100;2023-08-24T11:44:45;48840.06;;;-146.00;50.63
21102;BME280;10709;49.006;12.100;2023-08-24T11:47:16;48867.50;;;-146.00;50.98
21102;BME280;10709;49.006;12.100;2023-08-24T11:49:46;48832.22;;;-146.00;50.89
21102;BME280;10709;49.006;12.100;2023-08-24T11:52:13;48836.16;;;-146.00;50.86
21102;BME280;10709;49.006;12.100;2023-08-24T11:54:42;48851.81;;;-146.00;50.82
21102;BME280;10709;49.006;12.100;2023-08-24T11:57:10;48855.75;;;-146.00;50.74
21102;BME280;10709;49.006;12.100;2023-08-24T11:59:37;48855.75;;;-146.00;50.85
21102;BME280;10709;49.006;12.100;2023-08-24T12:02:05;48847.91;;;-146.00;48.80
21102;BME280;10709;49.006;12.100;2023-08-24T12:04:41;48877.28;;;-146.00;48.08
21102;BME280;10709;49.006;12.100;2023-08-24T12:07:12;48863.56;;;-146.00;49.17
21102;BME280;10709;49.006;12.100;2023-08-24T12:09:42;48844.00;;;-146.00;48.88
21102;BME280;10709;49.006;12.100;2023-08-24T12:12:16;48844.00;;;-146.00;49.32
21102;BME280;10709;49.006;12.100;2023-08-24T12:14:45;48844.00;;;-146.00;49.62
21102;BME280;10709;49.006;12.100;2023-08-24T12:17:13;48838.09;;;-146.00;49.62
21102;BME280;10709;49.006;12.100;2023-08-24T12:19:44;48859.66;;;-146.00;49.35
21102;BME280;10709;49.006;12.100;2023-08-24T12:22:15;48836.16;;;-146.00;49.99
21102;BME280;10709;49.006;12.100;2023-08-24T12:24:47;48836.16;;;-146.00;51.11
21102;BME280;10709;49.006;12.100;2023-08-24T12:27:18;48871.41;;;-146.00;50.56
21102;BME280;10709;49.006;12.100;2023-08-24T12:29:46;48847.91;;;-146.00;50.99
21102;BME280;10709;49.006;12.100;2023-08-24T12:32:13;48840.06;;;-146.00;49.13
21102;BME280;10709;49.006;12.100;2023-08-24T12:34:47;48859.66;;;-146.00;48.37
21102;BME280;10709;49.006;12.100;2023-08-24T12:37:14;48844.00;;;-146.00;49.89
21102;BME280;10709;49.006;12.100;2023-08-24T12:39:41;48842.03;;;-146.00;48.93
21102;BME280;10709;49.006;12.100;2023-08-24T12:42:07;48810.69;;;-146.00;48.12
21102;BME280;10709;49.006;12.100;2023-08-24T12:44:34;48814.59;;;-146.00;47.33
21102;BME280;10709;49.006;12.100;2023-08-24T12:47:03;48855.75;;;-146.00;45.95
21102;BME280;10709;49.006;12.100;2023-08-24T12:49:29;48847.91;;;-146.00;47.00